Home > Products > Valid Products > TAF

000
FTUS42 KMLB 280500
TAFVRB
TAF
KVRB 280539Z 2806/2906 23004KT P6SM FEW030 SCT250
     FM281400 26009KT P6SM SCT035 SCT250
     FM290000 24006KT P6SM FEW040 SCT250=



000
FTUS42 KMLB 280500
TAFMLB
TAF
KMLB 280539Z 2806/2906 25005KT P6SM FEW030 SCT250
     FM281400 26010KT P6SM SCT035 SCT250
     FM290100 26006KT P6SM FEW040 SCT250=



000
FTUS42 KMLB 280500
TAFSFB
TAF
KSFB 280539Z 2806/2906 25005KT P6SM FEW030 SCT250
     FM281500 26012KT P6SM SCT035 SCT250
     FM290100 25006KT P6SM FEW040 SCT250
      AMD NOT SKED TIL 281100=



000
FTUS42 KMLB 280500
TAFMCO
TAF
KMCO 280539Z 2806/2906 25005KT P6SM FEW030 SCT250
     FM281500 26012KT P6SM SCT035 SCT250
     FM290100 25006KT P6SM FEW040 SCT250=



000
FTUS42 KMLB 280500
TAFDAB
TAF
KDAB 280539Z 2806/2906 24005KT P6SM FEW030 SCT250
     FM281500 26011KT P6SM SCT035 SCT250
     FM290100 26006KT P6SM FEW040 SCT250=



000
FTUS42 KMLB 280300 AAA
TAFMCO
TAF AMD
KMCO 280311Z 2803/2824 25005KT P6SM FEW030 SCT250
     FM281400 26010KT P6SM FEW040 SCT250=



000
FTUS42 KMLB 272300
TAFSFB
TAF
KSFB 272326Z 2800/2824 24006KT P6SM FEW040 SCT100 SCT250
     FM281400 27010KT P6SM FEW040 SCT250=



000
FTUS42 KMLB 272300
TAFDAB
TAF
KDAB 272326Z 2800/2824 24008KT P6SM FEW040 SCT250
     FM281400 25010KT P6SM FEW040 SCT250=



000
FTUS42 KMLB 272300
TAFMCO
TAF
KMCO 272326Z 2800/2824 30009KT P6SM FEW040 FEW090 BKN250
     FM281400 26010KT P6SM FEW040 SCT250=



000
FTUS42 KMLB 272300
TAFVRB
TAF
KVRB 272326Z 2800/2824 16007KT P6SM FEW040 SCT100
     FM280100 24003KT P6SM SCT040 BKN250
     FM281400 25007KT P6SM FEW040 SCT250=



000
FTUS42 KMLB 272300
TAFMLB
TAF
KMLB 272326Z 2800/2824 24008KT P6SM VCTS BKN040CB BKN070
     FM280100 23005KT P6SM FEW040 SCT100 SCT250
     FM281400 26010KT P6SM FEW040 SCT250=



000
FTUS42 KMLB 272100 AAA
TAFMCO
TAF AMD
KMCO 272141Z 2722/2818 26007KT P6SM VCSH SCT040 SCT250
     FM272300 24005KT P6SM FEW040 SCT100 SCT250
     FM281400 26010KT P6SM FEW040 SCT250=



000
FTUS42 KMLB 271700 RRA
TAFVRB
TAF
KVRB 271747Z 2718/2818 28005KT P6SM SCT035 SCT250
     FM271900 12008KT P6SM VCTS SCT040CB SCT080
      TEMPO 2721/2723 3SM TSRA BKN035CB OVC080
     FM280100 24003KT P6SM SCT040 BKN250
     FM281400 25007KT P6SM FEW040 SCT250=



000
FTUS42 KMLB 271700 RRA
TAFDAB
TAF
KDAB 271747Z 2718/2818 26009KT P6SM VCTS SCT030CB SCT050 SCT250
      TEMPO 2718/2720 3SM TSRA SCT020 BKN050CB BKN250
     FM280000 23005KT P6SM FEW040 SCT100 SCT250
     FM281400 25010KT P6SM FEW040 SCT250=



000
FTUS42 KMLB 271700 RRA
TAFMLB
TAF
KMLB 271747Z 2718/2818 22006KT P6SM SCT040 SCT050 SCT250
     FM272000 15009KT P6SM VCTS SCT040CB SCT080 SCT250
      TEMPO 2721/2723 3SM TSRA SCT020 BKN050CB BKN250
     FM280100 23005KT P6SM FEW040 SCT100 SCT250
     FM281400 26010KT P6SM FEW040 SCT250=



000
FTUS42 KMLB 271700 RRA
TAFSFB
TAF
KSFB 271747Z 2718/2818 29009KT P6SM VCTS SCT035CB SCT060 SCT250
      TEMPO 2718/2719 3SM TSRA SCT030 BKN050CB BKN250
     FM272300 24006KT P6SM FEW040 SCT100 SCT250
     FM281400 27010KT P6SM FEW040 SCT250=



000
FTUS42 KMLB 271700 RRA
TAFMCO
TAF
KMCO 271747Z 2718/2818 26008KT P6SM VCTS SCT050CB SCT250
      TEMPO 2718/2719 5SM TSRA SCT030 BKN050CB BKN250
     FM272300 24005KT P6SM FEW040 SCT100 SCT250
     FM281400 26010KT P6SM FEW040 SCT250=



000
FTUS42 KMLB 271500 AAA
TAFMCO
TAF AMD
KMCO 271505Z 2715/2812 24008KT P6SM SCT030 SCT250
     FM271700 26008KT P6SM VCTS SCT035CB SCT080
     FM272300 24005KT P6SM FEW040 BKN250=



000
FTUS42 KMLB 271100
TAFSFB
TAF
KSFB 271135Z 2712/2812 23006KT P6SM SCT030 SCT250
     FM271800 26008KT P6SM VCTS SCT035CB SCT080
     FM280000 24005KT P6SM FEW040 BKN250=



000
FTUS42 KMLB 271100
TAFVRB
TAF
KVRB 271135Z 2712/2812 25005KT P6SM FEW030 SCT250
     FM271500 26006KT P6SM SCT035 SCT250
     FM271900 12008KT P6SM VCTS SCT040CB SCT080
      TEMPO 2721/2723 3SM TSRA BKN035CB OVC080
     FM280100 22005KT P6SM SCT040 BKN250=



000
FTUS42 KMLB 271100
TAFMLB
TAF
KMLB 271135Z 2712/2812 25005KT P6SM FEW030 SCT250
     FM271500 26007KT P6SM SCT035 SCT250
     FM272000 13008KT P6SM VCTS SCT040CB SCT080
     FM280000 22005KT P6SM SCT040 BKN250=



000
FTUS42 KMLB 271100
TAFDAB
TAF
KDAB 271135Z 2712/2812 25005KT P6SM SCT030 SCT250
     FM271800 26008KT P6SM VCTS SCT035CB SCT080
     FM280000 26006KT P6SM SCT040 BKN250=



000
FTUS42 KMLB 271100
TAFMCO
TAF
KMCO 271135Z 2712/2812 24005KT P6SM SCT030 SCT250
     FM271800 26008KT P6SM VCTS SCT035CB SCT080
     FM280000 24005KT P6SM FEW040 BKN250=



000
FTUS42 KMLB 270900 AAA
TAFMCO
TAF AMD
KMCO 270900Z 2709/2806 24004KT P6SM FEW030 SCT250
     FM271800 26008KT P6SM VCTS SCT035CB SCT080
     FM280000 24005KT P6SM FEW040 BKN250=



000
FTUS42 KMLB 270500
TAFMCO
TAF
KMCO 270532Z 2706/2806 24004KT P6SM FEW030 BKN250
     FM271800 26008KT P6SM VCTS SCT035CB SCT080
     FM280000 24005KT P6SM FEW040 BKN250=



000
FTUS42 KMLB 270500
TAFDAB
TAF
KDAB 270532Z 2706/2806 25004KT P6SM FEW030 BKN250
     FM271800 26008KT P6SM VCTS SCT035CB SCT080
     FM280000 26006KT P6SM SCT040 BKN250=



000
FTUS42 KMLB 270500
TAFSFB
TAF
KSFB 270532Z 2706/2806 24004KT P6SM FEW030 BKN250
     FM271800 26008KT P6SM VCTS SCT035CB SCT080
     FM280000 24005KT P6SM FEW040 BKN250
      AMD NOT SKED TIL 271100=



000
FTUS42 KMLB 270500
TAFVRB
TAF
KVRB 270532Z 2706/2806 25004KT P6SM FEW030 BKN250
     FM271500 26006KT P6SM SCT035 SCT250
     FM271900 12008KT P6SM VCTS SCT040CB SCT080
     FM280100 22005KT P6SM SCT040 BKN250=



000
FTUS42 KMLB 270500
TAFMLB
TAF
KMLB 270532Z 2706/2806 25004KT P6SM FEW030 BKN250
     FM271500 26007KT P6SM SCT035 SCT250
     FM272000 13008KT P6SM VCTS SCT040CB SCT080
     FM280000 22005KT P6SM SCT040 BKN250=



000
FTUS42 KMLB 270200 AAA
TAFMCO
TAF AMD
KMCO 270255Z 2703/2724 VRB03KT P6SM FEW040 BKN250
     FM271400 26007KT P6SM SCT030 SCT250
     FM271700 26007KT P6SM VCTS SCT035CB SCT080=



000
FTUS42 KMLB 262300
TAFMLB
TAF
KMLB 262332Z 2700/2724 14007KT P6SM VCTS SCT040CB BKN120
     FM270100 24003KT P6SM SCT080 BKN250
     FM271300 26006KT P6SM FEW030 SCT250
     FM271600 VRB03KT P6SM VCSH SCT040 SCT080
     FM271900 10008KT P6SM VCTS SCT035CB SCT080=



000
FTUS42 KMLB 262300
TAFMCO
TAF
KMCO 262332Z 2700/2724 14005KT P6SM FEW045 OVC200
     FM270200 VRB02KT P6SM SCT250
     FM271400 26007KT P6SM SCT030 SCT250
     FM271700 26007KT P6SM VCTS SCT035CB SCT080=



000
FTUS42 KMLB 262300
TAFSFB
TAF
KSFB 262332Z 2700/2724 21005KT P6SM FEW040 OVC200
     FM270200 VRB02KT P6SM SCT250
     FM271400 26007KT P6SM SCT030 SCT250
     FM271700 26007KT P6SM VCTS SCT035CB SCT080=



000
FTUS42 KMLB 262300
TAFDAB
TAF
KDAB 262332Z 2700/2724 28007KT P6SM VCSH SCT035 SCT070 BKN120
     FM270200 VRB03KT P6SM FEW040 BKN200
     FM271400 26008KT P6SM SCT030 SCT250
     FM271700 26008KT P6SM VCTS SCT035CB SCT080=



000
FTUS42 KMLB 262300
TAFVRB
TAF
KVRB 262332Z 2700/2724 32007KT P6SM VCSH FEW030 SCT045 BKN100
     FM270200 24003KT P6SM SCT080 BKN250
     FM271300 26006KT P6SM FEW030 SCT250
     FM271600 VRB03KT P6SM VCSH SCT040 SCT080
     FM271700 10008KT P6SM VCTS SCT035CB SCT080=



000
FTUS42 KMLB 262100 AAA
TAFMCO
TAF AMD
KMCO 262104Z 2621/2718 25007KT P6SM SCT040 SCT080 BKN250
     FM270000 23005KT P6SM FEW040 BKN250
     FM271400 27008KT P6SM SCT030 SCT250=



000
FTUS42 KMLB 262100 AAA
TAFSFB
TAF AMD
KSFB 262104Z 2621/2718 31007KT P6SM SCT045 SCT080 SCT250
     FM270000 23005KT P6SM FEW040 BKN250
     FM271400 28008KT P6SM SCT030 SCT250=



000
FTUS42 KMLB 261700
TAFVRB
TAF
KVRB 261727Z 2618/2718 11008KT P6SM VCSH BKN040 BKN250
     FM261900 13010KT P6SM VCTS SCT040CB SCT080 BKN250
      TEMPO 2620/2622 3SM TSRA BKN035CB OVC080
     FM270100 22003KT P6SM SCT080 BKN250
     FM271400 22006KT P6SM FEW030 SCT250=



000
FTUS42 KMLB 261700
TAFMLB
TAF
KMLB 261727Z 2618/2718 12008KT P6SM SCT040 SCT250
     FM262000 14010KT P6SM VCTS SCT040CB SCT080 BKN250
      TEMPO 2621/2623 3SM TSRA BKN035CB OVC080
     FM270200 24003KT P6SM SCT080 BKN250
     FM271300 26006KT P6SM FEW030 SCT250=



000
FTUS42 KMLB 261700
TAFDAB
TAF
KDAB 261727Z 2618/2718 28008KT P6SM VCTS SCT035CB SCT060 BKN250
      TEMPO 2618/2621 3SM TSRA BKN035CB OVC080
     FM270100 21003KT P6SM FEW040 BKN250
     FM271400 26008KT P6SM SCT030 SCT250=



000
FTUS42 KMLB 261700
TAFSFB
TAF
KSFB 261727Z 2618/2718 27007KT P6SM VCTS SCT035CB SCT080 BKN250
      TEMPO 2618/2621 3SM TSRA BKN035CB OVC080
     FM270000 23005KT P6SM FEW040 BKN250
     FM271400 28008KT P6SM SCT030 SCT250=



000
FTUS42 KMLB 261700
TAFMCO
TAF
KMCO 261727Z 2618/2718 25007KT P6SM VCTS SCT035CB SCT080 BKN250
      TEMPO 2618/2621 3SM TSRA BKN035CB OVC080
     FM270000 23005KT P6SM FEW040 BKN250
     FM271400 27008KT P6SM SCT030 SCT250=



000
FTUS42 KMLB 261400 AAA
TAFMCO
TAF AMD
KMCO 261459Z 2615/2712 22005KT P6SM SCT030 SCT250
     FM261700 25007KT P6SM VCTS SCT035CB SCT080 BKN250
      TEMPO 2618/2621 3SM TSRA BKN035CB OVC080
     FM270000 23005KT P6SM FEW040 BKN250=



000
FTUS42 KMLB 261100
TAFVRB
TAF
KVRB 261140Z 2612/2712 24005KT P6SM SCT030 SCT250
     FM261700 11010KT P6SM VCTS SCT035CB SCT080
      TEMPO 2618/2620 3SM TSRA BKN035CB OVC080
     FM270200 21005KT P6SM SCT080 BKN250=



000
FTUS42 KMLB 261100
TAFMCO
TAF
KMCO 261140Z 2612/2712 24005KT P6SM SCT030 SCT250
     FM261800 25007KT P6SM VCTS SCT035CB SCT080
      TEMPO 2619/2621 3SM TSRA BKN035CB OVC080
     FM270000 23005KT P6SM FEW040 BKN250=



000
FTUS42 KMLB 261100
TAFSFB
TAF
KSFB 261140Z 2612/2712 24005KT P6SM SCT030 SCT250
     FM261800 25007KT P6SM VCTS SCT035CB SCT080
      TEMPO 2619/2621 3SM TSRA BKN035CB OVC080
     FM270000 23005KT P6SM FEW040 BKN250=



000
FTUS42 KMLB 261100
TAFDAB
TAF
KDAB 261140Z 2612/2712 24005KT P6SM SCT030 SCT250
     FM261900 11008KT P6SM VCTS SCT035CB SCT080
      TEMPO 2621/2623 3SM TSRA BKN035CB OVC080
     FM270200 21005KT P6SM SCT080 BKN250=



000
FTUS42 KMLB 261100
TAFMLB
TAF
KMLB 261140Z 2612/2712 24005KT P6SM SCT030 SCT250
     FM261800 11010KT P6SM VCTS SCT035CB SCT080
      TEMPO 2620/2622 3SM TSRA BKN035CB OVC080
     FM270200 21005KT P6SM SCT080 BKN250=



000
FTUS42 KMLB 260800 AAA
TAFMCO
TAF AMD
KMCO 260850Z 2609/2706 24004KT P6SM FEW030 SCT250
     FM261900 25007KT P6SM VCTS SCT035CB SCT080
     FM270000 23005KT P6SM FEW040 BKN250=



000
FTUS42 KMLB 260500
TAFMLB
TAF
KMLB 260532Z 2606/2706 24004KT P6SM FEW030 SCT250
     FM261800 11010KT P6SM VCTS SCT035CB SCT080
     FM270200 21005KT P6SM SCT080 BKN250=



000
FTUS42 KMLB 260500
TAFMCO
TAF
KMCO 260532Z 2606/2706 24004KT P6SM FEW030 SCT250
     FM261900 25007KT P6SM VCTS SCT035CB SCT080
     FM270000 23005KT P6SM FEW040 BKN250=



000
FTUS42 KMLB 260500
TAFDAB
TAF
KDAB 260532Z 2606/2706 24004KT P6SM FEW030 SCT250
     FM261900 11008KT P6SM VCTS SCT035CB SCT080
     FM270200 21005KT P6SM SCT080 BKN250=



000
FTUS42 KMLB 260500
TAFSFB
TAF
KSFB 260532Z 2606/2706 24004KT P6SM FEW030 SCT250
     FM261900 25007KT P6SM VCTS SCT035CB SCT080
     FM270000 23005KT P6SM FEW040 BKN250
      AMD NOT SKED TIL 261100=



000
FTUS42 KMLB 260500
TAFVRB
TAF
KVRB 260532Z 2606/2706 24004KT P6SM FEW030 SCT250
     FM261700 11010KT P6SM VCTS SCT035CB SCT080
     FM270200 21005KT P6SM SCT080 BKN250=



000
FTUS42 KMLB 260300 AAA
TAFMCO
TAF AMD
KMCO 260312Z 2603/2624 00000KT P6SM OVC250
     FM261400 23005KT P6SM SCT035 SCT250
     FM261800 25005KT P6SM VCTS SCT035CB SCT080=



000
FTUS42 KMLB 252300 RRA
TAFDAB
TAF
KDAB 252342Z 2600/2624 15005KT P6SM VCSH SCT040 BKN130
     FM260100 VRB03KT P6SM FEW040 BKN250
     FM261400 23005KT P6SM SCT020 SCT250
     FM261700 24005KT P6SM VCTS SCT035CB SCT080=



000
FTUS42 KMLB 252300 RRA
TAFSFB
TAF
KSFB 252342Z 2600/2624 12006KT P6SM FEW007
     FM260200 VRB03KT P6SM FEW060 SCT250
     FM261400 23005KT P6SM SCT035 SCT250
     FM261800 25005KT P6SM VCTS SCT035CB SCT080=



000
FTUS42 KMLB 252300 RRA
TAFMLB
TAF
KMLB 252342Z 2600/2624 28007KT P6SM VCSH SCT050 SCT100
     FM260200 20003KT P6SM FEW040 BKN250
     FM261300 23005KT P6SM SCT020 SCT250
     FM261900 24005KT P6SM VCTS SCT035CB SCT080=



000
FTUS42 KMLB 252300 RRA
TAFVRB
TAF
KVRB 252342Z 2600/2624 14008KT P6SM VCSH SCT050 SCT100
     FM260200 20003KT P6SM FEW040 BKN250
     FM261300 21005KT P6SM SCT020 SCT250
     FM261800 11007KT P6SM VCTS SCT035CB SCT080=



000
FTUS42 KMLB 252300 RRA
TAFMCO
TAF
KMCO 252342Z 2600/2624 07006KT P6SM FEW050 SCT080 BKN250
     FM260200 VRB03KT P6SM FEW060 SCT250
     FM261400 23005KT P6SM SCT035 SCT250
     FM261800 25005KT P6SM VCTS SCT035CB SCT080=



000
FTUS42 KMLB 252100 AAA
TAFMCO
TAF AMD
KMCO 252114Z 2521/2618 28005KT P6SM SCT040 SCT080 SCT250
     FM252300 21003KT P6SM FEW040 BKN250
     FM261400 23005KT P6SM SCT030 SCT250=



000
FTUS42 KMLB 251700
TAFVRB
TAF
KVRB 251738Z 2518/2618 12010KT P6SM VCSH SCT040 SCT250
     FM252000 13009KT P6SM VCTS SCT040CB SCT080 SCT250
      TEMPO 2520/2523 3SM TSRA SCT020 BKN035CB OVC080
     FM260200 21003KT P6SM FEW040 BKN250
     FM261600 14007KT P6SM SCT030 SCT250=



000
FTUS42 KMLB 251700
TAFMCO
TAF
KMCO 251738Z 2518/2618 20008KT P6SM VCTS SCT040CB SCT080 SCT250
      TEMPO 2518/2521 3SM TSRA SCT020 BKN035CB OVC050
     FM252300 21003KT P6SM FEW040 BKN250
     FM261400 23005KT P6SM SCT030 SCT250=



000
FTUS42 KMLB 251700
TAFMLB
TAF
KMLB 251738Z 2518/2618 11012KT P6SM SCT040 SCT250
     FM252000 13008KT P6SM VCTS SCT040CB SCT080 SCT250
      TEMPO 2521/2523 3SM TSRA SCT020 BKN035CB OVC080
     FM260200 20003KT P6SM FEW040 BKN250
     FM261300 23005KT P6SM SCT020 SCT250=



000
FTUS42 KMLB 251700
TAFSFB
TAF
KSFB 251738Z 2518/2618 22008KT P6SM VCTS SCT030CB SCT080 SCT250
      TEMPO 2519/2521 3SM TSRA SCT020 BKN035CB OVC050
     FM252300 21003KT P6SM FEW040 BKN250
     FM261400 25005KT P6SM SCT030 SCT250=



000
FTUS42 KMLB 251700
TAFDAB
TAF
KDAB 251738Z 2518/2618 18006KT P6SM VCTS SCT040CB SCT050 SCT250
     FM251900 15008KT P6SM VCTS SCT040CB SCT080 SCT250
      TEMPO 2520/2522 3SM TSRA SCT020 BKN035CB OVC080
     FM260100 21003KT P6SM FEW040 BKN250
     FM261400 25006KT P6SM SCT020 SCT250=



000
FTUS42 KMLB 251500 AAA
TAFMCO
TAF AMD
KMCO 251524Z 2515/2612 23005KT P6SM SCT030 SCT250
     FM251900 25008KT P6SM VCTS SCT035CB BKN080
      TEMPO 2519/2522 3SM TSRA BKN035CB OVC080
     FM260000 21005KT P6SM FEW040 BKN250=



000
FTUS42 KMLB 251100
TAFDAB
TAF
KDAB 251133Z 2512/2612 23005KT P6SM SCT030 SCT250
     FM251800 13008KT P6SM VCTS SCT035CB BKN080
      TEMPO 2520/2523 3SM TSRA BKN035CB OVC080
     FM260200 19005KT P6SM SCT080 BKN250=



000
FTUS42 KMLB 251100
TAFMLB
TAF
KMLB 251133Z 2512/2612 21005KT P6SM SCT030 SCT250
     FM251700 13008KT P6SM VCTS SCT035CB BKN080
      TEMPO 2519/2522 3SM TSRA BKN035CB OVC080
     FM260200 19005KT P6SM SCT080 BKN250=



000
FTUS42 KMLB 251100
TAFVRB
TAF
KVRB 251133Z 2512/2612 21005KT P6SM SCT030 SCT250
     FM251700 13008KT P6SM VCTS SCT035CB BKN080
      TEMPO 2517/2520 3SM TSRA BKN035CB OVC080
     FM260100 19005KT P6SM SCT080 BKN250=



000
FTUS42 KMLB 251100
TAFSFB
TAF
KSFB 251133Z 2512/2612 23005KT P6SM SCT030 SCT250
     FM251900 25008KT P6SM VCTS SCT035CB BKN080
      TEMPO 2519/2522 3SM TSRA BKN035CB OVC080
     FM260000 21005KT P6SM FEW040 BKN250=



000
FTUS42 KMLB 251100
TAFMCO
TAF
KMCO 251133Z 2512/2612 23005KT P6SM SCT030 SCT250
     FM251900 25008KT P6SM VCTS SCT035CB BKN080
      TEMPO 2519/2522 3SM TSRA BKN035CB OVC080
     FM260000 21005KT P6SM FEW040 BKN250=



000
FTUS42 KMLB 250800 AAA
TAFMCO
TAF AMD
KMCO 250850Z 2509/2606 23004KT P6SM FEW025 SCT250
     FM251900 25008KT P6SM VCTS SCT035CB BKN080
     FM260000 21005KT P6SM FEW040 BKN250=



    US Dept of Commerce
    National Oceanic and Atmospheric Administration
    National Weather Service
    1325 East West Highway
    Silver Spring, MD 20910
    Page Author: NWS Internet Services Team
Disclaimer
Information Quality
Credits
Glossary
Privacy Policy
Freedom of Information Act (FOIA)
About Us
Career Opportunities